KMYZ

Details ICAO KMYZ
Name MARYSVILLE MUNI
Region United States
Timezone America/Chicago (UTC-6.0)
Plans Departing 0
Arriving 0
Stats Elevation 1,283 ft / 391 m (AMSL)
Location 39.854818° -96.630597°
Runways 2
Magnetic Variation 3.091° E
Sunrise 2017-12-11 13:39:29 UTC / 2017-12-11 07:39:29 Local
Sunset 2017-12-11 23:03:14 UTC / 2017-12-11 17:03:14 Local
Advertisement - Login to hide

Runways

ID Width Length Bearing (true) Bearing (mag) Surface Threshold Offset Overrun Length
02 75 ft / 23 m 2,196 ft / 669 m 33.80° 30.71° Grass 0 ft / 0 m 0 ft / 0 m
15 60 ft / 18 m 4,205 ft / 1,282 m 160.63° 157.54° Asphalt 0 ft / 0 m 0 ft / 0 m
20 75 ft / 23 m 2,196 ft / 669 m 213.81° 210.72° Grass 0 ft / 0 m 0 ft / 0 m
33 60 ft / 18 m 4,205 ft / 1,282 m 340.64° 337.55° Asphalt 0 ft / 0 m 0 ft / 0 m

Map

Weather


0- 5 10 15 20 25 30 35+ Temperature / ° C

Clouds and Precipitation
Forecast for 2017-12-12 06:00 UTC. Updated an hour ago

Ground ~20,000 ft ~40,000 ft Winds

METAR

KMYZ 120235Z AUTO 35015G21KT 10SM SCT034 BKN040 04/00 A3028 RMK AO2

TAF

Not found

Frequencies

Unicom 122.80 MHz CTAF/UNICOM
Warning: Do not use this data for real-world aviation or navigation. No guarantee of current accuracy is given.